| time (UTC) | temp C | wind direction | speed KPH | gust KPH | rain 1hr cm | rain 24hr cm | rain mn cm | humidity % | barometer mb |
| 20260505101503 | 15 | 216 | 4.8 | 11.3 | 0.00 | 0.00 | 0.00 | 74 | 992.3 |
| 20260505100005 | 16 | 217 | 6.4 | 16.1 | 0.00 | 0.00 | 0.00 | 74 | 992.2 |
| 20260505094509 | 16 | 258 | 3.2 | 19.3 | 0.00 | 0.00 | 0.00 | 74 | 992.2 |
| 20260505091503 | 16 | 145 | 3.2 | 16.1 | 0.00 | 0.00 | 0.00 | 74 | 992.1 |
| 20260505090006 | 16 | 206 | 4.8 | 14.5 | 0.00 | 0.00 | 0.00 | 73 | 992.2 |
| 20260505084501 | 16 | 214 | 1.6 | 16.1 | 0.00 | 0.00 | 0.00 | 73 | 992.0 |
| 20260505081503 | 16 | 136 | 1.6 | 12.9 | 0.00 | 0.00 | 0.00 | 72 | 992.2 |
| 20260505080002 | 16 | 147 | 1.6 | 11.3 | 0.00 | 0.00 | 0.00 | 71 | 992.4 |
| 20260505070000 | 17 | 285 | 6.4 | 16.1 | 0.00 | 0.00 | 0.00 | 67 | 993.1 |
| 20260505063004 | 17 | 301 | 6.4 | 16.1 | 0.00 | 0.00 | 0.00 | 68 | 992.9 |
| 20260505054504 | 17 | 170 | 0.0 | 6.4 | 0.00 | 0.00 | 0.00 | 67 | 993.3 |
| 20260505053000 | 17 | 110 | 0.0 | 8.0 | 0.00 | 0.00 | 0.00 | 66 | 993.5 |
| 20260505051500 | 17 | 200 | 0.0 | 4.8 | 0.00 | 0.00 | 0.00 | 65 | 993.5 |
| 20260505041501 | 18 | 210 | 1.6 | 12.9 | 0.00 | 0.00 | 0.00 | 61 | 993.1 |
| 20260505040004 | 18 | 231 | 8.0 | 14.5 | 0.00 | 0.00 | 0.00 | 61 | 993.1 |
| 20260505034510 | 18 | 207 | 4.8 | 14.5 | 0.00 | 0.00 | 0.00 | 61 | 993.1 |
| 20260505033001 | 19 | 251 | 3.2 | 11.3 | 0.00 | 0.00 | 0.00 | 61 | 993.2 |
| 20260505031502 | 19 | 152 | 1.6 | 9.7 | 0.00 | 0.00 | 0.00 | 61 | 993.0 |
| 20260505030004 | 19 | 172 | 1.6 | 8.0 | 0.00 | 0.00 | 0.00 | 60 | 993.0 |
| 20260505024500 | 20 | 194 | 0.0 | 9.7 | 0.00 | 0.00 | 0.00 | 60 | 992.9 |
| 20260505023002 | 20 | 206 | 3.2 | 9.7 | 0.00 | 0.00 | 0.00 | 59 | 992.9 |
| 20260505021502 | 20 | 138 | 0.0 | 6.4 | 0.00 | 0.00 | 0.00 | 58 | 993.0 |
| 20260505020006 | 20 | 154 | 0.0 | 4.8 | 0.00 | 0.00 | 0.00 | 56 | 992.9 |
| 20260505013005 | 21 | 198 | 1.6 | 12.9 | 0.00 | 0.00 | 0.00 | 54 | 992.8 |
| 20260505010002 | 22 | 220 | 4.8 | 16.1 | 0.00 | 0.00 | 0.00 | 52 | 992.8 |
| 20260505000003 | 23 | 214 | 6.4 | 16.1 | 0.00 | 0.00 | 0.00 | 47 | 992.4 |
| 20260504234504 | 23 | 222 | 14.5 | 29.0 | 0.00 | 0.00 | 0.00 | 48 | 992.5 |
| 20260504233004 | 24 | 208 | 17.7 | 29.0 | 0.00 | 0.00 | 0.00 | 47 | 992.5 |
| 20260504230006 | 24 | 214 | 17.7 | 30.6 | 0.00 | 0.00 | 0.00 | 47 | 992.5 |
| 20260504224507 | 23 | 238 | 17.7 | 38.6 | 0.00 | 0.00 | 0.00 | 46 | 992.7 |
| 20260504221501 | 25 | 207 | 20.9 | 32.2 | 0.00 | 0.00 | 0.00 | 43 | 992.7 |
| 20260504220003 | 25 | 210 | 17.7 | 33.8 | 0.00 | 0.00 | 0.00 | 47 | 992.7 |
| 20260504214501 | 25 | 228 | 27.4 | 41.8 | 0.00 | 0.00 | 0.00 | 45 | 992.6 |
| 20260504213009 | 25 | 218 | 20.9 | 35.4 | 0.00 | 0.00 | 0.00 | 44 | 992.9 |
| 20260504210002 | 24 | 215 | 22.5 | 37.0 | 0.00 | 0.00 | 0.00 | 44 | 993.1 |
| 20260504193003 | 24 | 213 | 22.5 | 35.4 | 0.00 | 0.00 | 0.00 | 48 | 994.2 |
| 20260504180007 | 23 | 222 | 16.1 | 32.2 | 0.00 | 0.00 | 0.00 | 57 | 995.0 |
| 20260504173002 | 23 | 199 | 29.0 | 35.4 | 0.00 | 0.00 | 0.00 | 54 | 995.5 |